Time;durP1;ratioP1;P1;durP2;ratioP2;P2;SDS_P1;SDS_P2;PMS_P1;PMS_P2;Temp;Humidity;BMP_temperature;BMP_pressure;BME280_temperature;BME280_humidity;BME280_pressure;Samples;Min_cycle;Max_cycle;Signal;HPM_P1;HPM_P2
2021/06/22 05:02:40;;;;;;;2.53;2.33;;;;;;;26.20;68.73;94528.19;4965003;28;20054;-74
2021/06/22 05:05:06;;;;;;;5.38;2.78;;;;;;;26.93;68.28;94530.75;4970515;28;20109;-73
2021/06/22 05:07:32;;;;;;;2.50;2.30;;;;;;;27.07;65.07;94520.19;4952532;28;20023;-74
2021/06/22 05:09:58;;;;;;;1.90;1.80;;;;;;;27.36;66.40;94520.09;4953425;28;20023;-75
2021/06/22 05:12:23;;;;;;;3.22;2.92;;;;;;;27.46;64.80;94528.00;4936316;28;20035;-78
2021/06/22 05:14:49;;;;;;;2.80;2.50;;;;;;;27.77;63.71;94529.94;4953730;28;20121;-76
2021/06/22 05:17:14;;;;;;;3.17;2.40;;;;;;;28.14;64.42;94534.50;4952492;28;20045;-75
2021/06/22 05:19:40;;;;;;;4.97;2.25;;;;;;;28.09;64.33;94539.13;4970699;28;20027;-75
2021/06/22 05:22:05;;;;;;;3.63;2.40;;;;;;;28.23;63.63;94539.94;4952748;28;20703;-77
2021/06/22 05:24:31;;;;;;;2.47;2.28;;;;;;;28.26;63.79;94539.38;4953156;28;20106;-78
2021/06/22 05:26:56;;;;;;;2.53;2.33;;;;;;;28.66;63.58;94538.72;4936994;28;20022;-77
2021/06/22 05:29:22;;;;;;;2.38;2.17;;;;;;;29.12;60.14;94551.22;4936333;28;20034;-77
2021/06/22 05:31:47;;;;;;;4.40;2.20;;;;;;;28.71;61.39;94545.84;4953793;28;20105;-77
2021/06/22 05:34:13;;;;;;;3.00;2.70;;;;;;;28.96;62.51;94550.69;4969330;28;20484;-77
2021/06/22 05:36:38;;;;;;;2.25;2.05;;;;;;;29.46;61.23;94554.31;4951381;28;20527;-77
2021/06/22 05:39:04;;;;;;;2.45;2.30;;;;;;;30.03;59.36;94558.16;4952115;28;20027;-71
2021/06/22 05:41:29;;;;;;;3.47;2.53;;;;;;;30.06;57.48;94562.91;4953601;28;20031;-71
2021/06/22 05:43:55;;;;;;;3.20;2.58;;;;;;;30.28;58.24;94562.91;4952475;28;20030;-74
2021/06/22 05:46:20;;;;;;;2.72;2.42;;;;;;;29.69;57.88;94568.50;4936916;28;20034;-68
2021/06/22 05:48:46;;;;;;;1.98;1.77;;;;;;;29.66;57.79;94563.78;4953098;28;20043;-71
2021/06/22 05:51:11;;;;;;;3.00;2.38;;;;;;;29.59;57.96;94563.38;4951614;28;20030;-73
2021/06/22 05:53:37;;;;;;;3.33;2.25;;;;;;;30.06;58.46;94572.78;4953315;28;20031;-73
2021/06/22 05:56:02;;;;;;;2.42;1.70;;;;;;;30.59;57.43;94565.69;4969179;28;20023;-74
2021/06/22 05:58:28;;;;;;;3.72;1.80;;;;;;;30.53;55.91;94571.47;4970229;28;20026;-75
2021/06/22 06:00:53;;;;;;;1.35;1.25;;;;;;;30.27;56.20;94573.94;4934383;28;20710;-73
2021/06/22 06:03:19;;;;;;;1.60;1.50;;;;;;;31.03;55.42;94569.41;4970174;28;20038;-73
2021/06/22 06:05:44;;;;;;;1.80;1.70;;;;;;;31.32;53.43;94577.72;4951860;28;20023;-72
2021/06/22 06:08:09;;;;;;;2.08;1.90;;;;;;;30.86;53.80;94580.78;4964603;28;20022;-72
2021/06/22 06:10:35;;;;;;;1.08;1.00;;;;;;;31.25;54.22;94582.72;4951690;28;20499;-74
2021/06/22 06:13:00;;;;;;;4.28;1.30;;;;;;;31.94;53.28;94582.94;4934311;28;20027;-71
2021/06/22 06:15:26;;;;;;;1.60;1.50;;;;;;;32.28;52.10;94588.34;4969521;28;20030;-73
2021/06/22 06:17:51;;;;;;;1.50;1.40;;;;;;;32.32;51.13;94586.63;4935359;28;20503;-76
2021/06/22 06:20:17;;;;;;;1.92;1.40;;;;;;;32.17;52.54;94587.09;4936375;28;20064;-75
2021/06/22 06:22:43;;;;;;;1.70;1.60;;;;;;;31.99;53.50;94590.81;4936218;28;20100;-74
2021/06/22 06:25:11;;;;;;;5.28;1.75;;;;;;;31.94;51.32;94593.66;4952302;28;20097;-73
2021/06/22 06:27:47;;;;;;;3.65;1.90;;;;;;;31.98;52.12;94598.06;4952369;28;20030;-72
2021/06/22 06:30:16;;;;;;;2.10;2.00;;;;;;;32.44;51.47;94588.66;4934106;28;20054;-74
2021/06/22 06:32:41;;;;;;;3.63;1.95;;;;;;;31.49;52.81;94593.84;4948392;28;20062;-73
2021/06/22 06:35:07;;;;;;;8.35;2.03;;;;;;;30.96;54.97;94590.47;4949252;28;20023;-74
2021/06/22 06:37:33;;;;;;;2.53;2.33;;;;;;;31.08;55.16;94590.69;4952576;28;20031;-73
2021/06/22 06:39:58;;;;;;;2.08;1.88;;;;;;;31.31;54.24;94581.47;4950827;28;20045;-74
2021/06/22 06:42:24;;;;;;;2.45;2.25;;;;;;;31.95;51.75;94584.53;4935767;28;20031;-73
2021/06/22 06:44:49;;;;;;;2.03;1.90;;;;;;;31.11;51.37;94580.16;4969419;28;20023;-71
2021/06/22 06:47:15;;;;;;;2.95;2.75;;;;;;;29.06;54.46;94587.88;4951963;28;20019;-76
2021/06/22 06:49:40;;;;;;;3.63;2.35;;;;;;;30.49;55.61;94590.00;4950980;28;20528;-76
2021/06/22 06:52:06;;;;;;;3.03;2.20;;;;;;;31.64;51.61;94589.97;4934773;28;20532;-76
2021/06/22 06:54:32;;;;;;;2.40;2.20;;;;;;;30.81;51.49;94595.09;4952128;28;20521;-73
2021/06/22 06:56:57;;;;;;;2.45;2.25;;;;;;;32.14;50.16;94595.78;4967916;28;20054;-73
2021/06/22 06:59:25;;;;;;;5.22;2.00;;;;;;;32.56;49.25;94586.91;4934912;28;20041;-76
2021/06/22 07:01:52;;;;;;;2.92;2.30;;;;;;;32.61;47.96;94591.38;4945446;28;20047;-74
2021/06/22 07:04:18;;;;;;;2.28;1.63;;;;;;;33.02;46.09;94591.59;4919480;28;20038;-76
2021/06/22 07:06:43;;;;;;;1.90;1.80;;;;;;;31.75;51.24;94593.97;4950505;28;20031;-74
2021/06/22 07:09:09;;;;;;;2.30;1.60;;;;;;;32.54;51.54;94585.66;4950263;28;20027;-76
2021/06/22 07:11:34;;;;;;;1.77;1.50;;;;;;;35.00;45.08;94593.06;4950894;28;20037;-76
2021/06/22 07:14:00;;;;;;;1.50;1.40;;;;;;;34.32;43.36;94593.34;4932470;28;20117;-75
2021/06/22 07:16:26;;;;;;;1.33;1.25;;;;;;;41.04;35.08;94607.75;4936132;28;20034;-77
2021/06/22 07:18:51;;;;;;;1.88;1.40;;;;;;;46.59;26.45;94604.34;4950953;28;20042;-80
2021/06/22 07:21:18;;;;;;;3.60;1.30;;;;;;;44.53;26.28;94604.16;4950443;28;20046;-77
2021/06/22 07:23:43;;;;;;;1.38;1.27;;;;;;;45.69;27.42;94605.56;4935662;28;20093;-78
2021/06/22 07:26:09;;;;;;;3.05;1.90;;;;;;;49.66;22.86;94612.00;4933931;28;20031;-76
2021/06/22 07:28:34;;;;;;;2.88;2.00;;;;;;;49.04;23.10;94612.97;4951538;28;20039;-75
2021/06/22 07:31:02;;;;;;;1.88;1.70;;;;;;;47.01;26.39;94612.03;4933374;28;20042;-78
2021/06/22 07:33:27;;;;;;;2.33;2.13;;;;;;;39.82;33.70;94613.84;4936194;28;20106;-75
2021/06/22 07:35:52;;;;;;;2.40;2.20;;;;;;;35.93;41.34;94611.97;4967627;28;20085;-78
2021/06/22 07:38:18;;;;;;;2.28;1.85;;;;;;;34.73;43.90;94610.59;4916709;29;20031;-78
2021/06/22 07:40:43;;;;;;;3.90;2.20;;;;;;;34.22;44.71;94609.88;4934721;28;20050;-80
2021/06/22 07:43:09;;;;;;;3.38;2.78;;;;;;;32.62;45.14;94609.84;4968133;28;20030;-77
2021/06/22 07:45:34;;;;;;;3.72;3.00;;;;;;;32.48;48.33;94601.13;4951558;28;20393;-80
2021/06/22 07:48:00;;;;;;;3.10;2.80;;;;;;;32.27;48.08;94598.28;4933960;28;20034;-73
2021/06/22 07:50:25;;;;;;;4.72;2.92;;;;;;;32.35;47.99;94605.56;4951925;28;20418;-80
2021/06/22 07:52:51;;;;;;;3.50;3.20;;;;;;;32.01;49.80;94599.34;4967797;28;20042;-81
2021/06/22 07:55:16;;;;;;;3.63;3.22;;;;;;;32.34;48.70;94603.19;4951662;28;20038;-74
2021/06/22 07:57:46;;;;;;;7.80;3.25;;;;;;;33.14;49.62;94607.06;4950811;28;20433;-79
2021/06/22 08:00:19;;;;;;;7.60;4.15;;;;;;;33.25;47.30;94602.94;4936492;28;20046;-74
2021/06/22 08:02:44;;;;;;;11.45;3.38;;;;;;;33.23;46.84;94602.47;4922939;28;20700;-78
2021/06/22 08:05:11;;;;;;;4.45;3.65;;;;;;;33.32;44.96;94601.31;4933836;28;20114;-78
2021/06/22 08:07:36;;;;;;;5.97;3.28;;;;;;;32.77;48.14;94598.59;4935415;28;20067;-77
2021/06/22 08:10:02;;;;;;;7.63;3.70;;;;;;;33.07;46.78;94586.06;4969676;28;20413;-79
2021/06/22 08:12:28;;;;;;;5.15;3.55;;;;;;;33.00;46.98;94588.44;4935710;28;20586;-77
2021/06/22 08:14:53;;;;;;;5.70;4.53;;;;;;;32.92;47.71;94583.09;4951648;28;20462;-76
2021/06/22 08:17:18;;;;;;;5.63;4.13;;;;;;;33.07;45.29;94585.28;4933905;28;20031;-74
2021/06/22 08:19:44;;;;;;;6.07;3.22;;;;;;;33.43;47.30;94585.63;4951149;28;20117;-80
2021/06/22 08:22:09;;;;;;;5.32;3.63;;;;;;;33.57;48.87;94588.09;4951682;28;20039;-77
2021/06/22 08:24:35;;;;;;;5.40;4.32;;;;;;;31.98;49.47;94587.34;4952580;28;20034;-79
2021/06/22 08:27:00;;;;;;;10.27;3.97;;;;;;;32.71;49.12;94591.03;4919584;28;20030;-76
2021/06/22 08:29:26;;;;;;;7.55;4.03;;;;;;;30.46;50.22;94595.97;4969060;28;20027;-78
2021/06/22 08:31:52;;;;;;;4.38;3.97;;;;;;;30.19;56.15;94604.03;4934733;28;20042;-77
2021/06/22 08:34:17;;;;;;;6.03;4.38;;;;;;;31.70;49.69;94594.88;4925397;28;20404;-75
2021/06/22 08:36:42;;;;;;;6.80;4.40;;;;;;;32.57;48.31;94590.41;4951069;28;20031;-78
2021/06/22 08:39:08;;;;;;;6.03;4.72;;;;;;;32.10;50.62;94594.81;4934367;28;20472;-77
2021/06/22 08:41:33;;;;;;;5.63;4.07;;;;;;;32.67;50.03;94592.78;4968369;28;20401;-72
2021/06/22 08:43:59;;;;;;;7.25;4.20;;;;;;;31.80;49.65;94586.56;4949952;28;20023;-77
2021/06/22 08:46:24;;;;;;;6.05;4.00;;;;;;;32.69;51.07;94588.66;4936178;28;20033;-77
2021/06/22 08:48:50;;;;;;;9.25;4.90;;;;;;;33.15;49.06;94581.78;4936170;28;20038;-73
2021/06/22 08:51:16;;;;;;;7.95;4.53;;;;;;;33.17;48.86;94579.59;4936584;28;20520;-76
2021/06/22 08:53:41;;;;;;;7.00;4.07;;;;;;;33.31;47.90;94585.50;4920580;28;20060;-76
2021/06/22 08:56:07;;;;;;;5.65;5.00;;;;;;;32.64;47.06;94583.47;4936986;28;20512;-76
2021/06/22 08:58:33;;;;;;;9.77;4.78;;;;;;;32.49;49.85;94581.25;4936933;28;20105;-74
2021/06/22 09:00:58;;;;;;;6.97;4.45;;;;;;;33.04;47.42;94585.91;4968850;28;20045;-74
2021/06/22 09:03:26;;;;;;;8.52;4.80;;;;;;;33.07;46.67;94588.75;4970370;28;20030;-71
2021/06/22 09:05:54;;;;;;;6.78;4.68;;;;;;;33.11;49.59;94594.28;4952474;28;20114;-75
2021/06/22 09:08:20;;;;;;;9.35;4.43;;;;;;;33.42;48.41;94588.63;4936820;28;20027;-74
2021/06/22 09:10:46;;;;;;;12.25;5.03;;;;;;;33.31;49.01;94588.19;4968008;28;20027;-78
2021/06/22 09:13:11;;;;;;;5.80;4.15;;;;;;;33.42;48.20;94581.38;4919106;28;20106;-81
2021/06/22 09:15:38;;;;;;;6.57;4.20;;;;;;;33.17;47.33;94588.41;4976262;28;20113;-77
2021/06/22 09:18:04;;;;;;;7.32;4.00;;;;;;;33.57;48.50;94580.81;4970180;28;20034;-78
2021/06/22 09:20:38;;;;;;;6.90;4.68;;;;;;;33.28;50.17;94586.94;4914181;28;20125;-82
2021/06/22 09:23:04;;;;;;;11.15;4.32;;;;;;;32.92;48.28;94586.56;4926077;28;20023;-78
2021/06/22 09:25:29;;;;;;;9.75;4.70;;;;;;;33.13;49.42;94590.19;4960049;28;20039;-74
2021/06/22 09:27:55;;;;;;;7.68;4.70;;;;;;;33.77;48.32;94588.16;4911381;28;20082;-78
2021/06/22 09:30:41;;;;;;;4.53;4.00;;;;;;;33.32;48.54;94587.91;4959912;28;20386;-74
2021/06/22 09:33:19;;;;;;;8.18;4.50;;;;;;;32.81;48.70;94582.66;4960619;28;20023;-78
2021/06/22 09:35:45;;;;;;;11.10;5.33;;;;;;;33.01;50.14;94587.31;4958826;28;20098;-79
2021/06/22 09:38:11;;;;;;;11.52;5.35;;;;;;;33.90;48.07;94584.44;4925908;28;20131;-78
2021/06/22 09:40:37;;;;;;;12.20;4.45;;;;;;;33.54;49.58;94586.03;4947827;28;20053;-77
2021/06/22 09:43:03;;;;;;;11.65;4.25;;;;;;;33.04;47.08;94585.91;4951751;28;20031;-78
2021/06/22 09:45:29;;;;;;;9.45;4.18;;;;;;;33.06;45.88;94589.06;4944519;28;20557;-76
2021/06/22 09:47:58;;;;;;;10.82;4.28;;;;;;;33.23;48.30;94579.06;4951914;28;20055;-77
2021/06/22 09:50:39;;;;;;;8.55;4.68;;;;;;;33.54;49.66;94572.59;4935199;28;20473;-73
2021/06/22 09:53:27;;;;;;;8.57;4.22;;;;;;;33.51;47.96;94575.94;4951476;28;20026;-79
2021/06/22 09:55:52;;;;;;;13.82;5.15;;;;;;;33.54;47.21;94569.91;4952154;28;20035;-78
2021/06/22 09:58:43;;;;;;;9.02;5.93;;;;;;;33.41;52.01;94566.34;4935165;28;20023;-74
2021/06/22 10:01:27;;;;;;;6.68;4.35;;;;;;;31.97;48.34;94563.56;4932573;29;20169;-75
2021/06/22 10:03:53;;;;;;;10.07;4.72;;;;;;;32.54;51.01;94575.72;4949068;29;20066;-75
2021/06/22 10:06:19;;;;;;;9.23;4.30;;;;;;;33.62;49.21;94567.22;4932895;29;20047;-76
2021/06/22 10:08:57;;;;;;;8.93;4.82;;;;;;;32.27;49.46;94559.97;4938757;29;20028;-70
2021/06/22 10:11:40;;;;;;;9.88;4.70;;;;;;;32.26;48.50;94553.81;4947516;29;20034;-74
2021/06/22 10:14:12;;;;;;;11.77;4.78;;;;;;;33.06;49.23;94562.19;4947641;29;20071;-74
2021/06/22 10:16:37;;;;;;;11.35;4.75;;;;;;;33.99;49.19;94560.19;4916889;29;20034;-76
2021/06/22 10:19:05;;;;;;;7.55;4.40;;;;;;;33.89;47.57;94561.34;4931356;29;20035;-74
2021/06/22 10:21:32;;;;;;;8.98;5.00;;;;;;;33.98;47.89;94563.97;4930995;29;20046;-75
2021/06/22 10:23:57;;;;;;;8.85;4.45;;;;;;;34.35;49.86;94567.69;4948244;28;20050;-76
2021/06/22 10:26:27;;;;;;;13.40;4.90;;;;;;;34.53;48.58;94561.03;4931989;29;20037;-74
2021/06/22 10:28:52;;;;;;;11.70;4.43;;;;;;;34.48;46.85;94563.94;4947260;29;20035;-75
2021/06/22 10:31:18;;;;;;;10.18;4.30;;;;;;;34.04;46.81;94559.19;4931591;29;20082;-74
2021/06/22 10:33:44;;;;;;;10.90;3.88;;;;;;;34.04;47.58;94559.19;4947368;29;20512;-76
2021/06/22 10:36:09;;;;;;;9.82;4.50;;;;;;;33.69;48.76;94561.31;4930569;29;20023;-76
2021/06/22 10:38:39;;;;;;;10.95;4.97;;;;;;;33.96;50.90;94558.16;4915663;29;20027;-75
2021/06/22 10:41:04;;;;;;;8.15;4.18;;;;;;;34.33;47.02;94559.13;4946554;29;20039;-76
2021/06/22 10:43:37;;;;;;;10.27;4.78;;;;;;;34.04;48.60;94553.81;4931789;29;20038;-77
2021/06/22 10:46:06;;;;;;;6.75;4.60;;;;;;;33.42;46.20;94549.13;4946743;29;20528;-77
2021/06/22 10:48:45;;;;;;;7.50;3.95;;;;;;;33.82;46.15;94544.16;4931882;29;20024;-76
2021/06/22 10:51:38;;;;;;;9.77;4.10;;;;;;;34.28;47.11;94541.31;4932278;29;20039;-74
2021/06/22 10:54:04;;;;;;;7.82;4.05;;;;;;;34.38;49.07;94550.88;4947039;29;20031;-75
2021/06/22 10:56:29;;;;;;;12.27;4.72;;;;;;;34.11;47.91;94546.81;4915997;29;20023;-76
2021/06/22 10:59:18;;;;;;;11.80;5.13;;;;;;;32.88;48.36;94542.66;4946696;29;20118;-80
2021/06/22 11:01:56;;;;;;;14.07;5.20;;;;;;;33.38;48.05;94542.81;4946398;28;20126;-75
2021/06/22 11:04:22;;;;;;;15.23;5.30;;;;;;;33.98;49.02;94547.84;4947270;29;20094;-74
2021/06/22 11:07:06;;;;;;;11.63;4.68;;;;;;;33.83;47.59;94543.06;4946415;29;20070;-79
2021/06/22 11:09:31;;;;;;;9.07;4.95;;;;;;;32.76;50.99;94535.28;4946771;29;20058;-76
2021/06/22 11:12:18;;;;;;;8.35;4.55;;;;;;;33.02;51.79;94537.88;4929024;29;20378;-76
2021/06/22 11:14:59;;;;;;;9.15;4.88;;;;;;;34.08;50.00;94546.66;4946848;29;20043;-74
2021/06/22 11:17:43;;;;;;;10.00;4.32;;;;;;;34.42;48.09;94538.34;4945017;29;20027;-74
2021/06/22 11:20:17;;;;;;;6.75;4.43;;;;;;;34.57;47.32;94536.94;4945549;29;20033;-75
2021/06/22 11:23:08;;;;;;;15.25;5.85;;;;;;;34.73;48.37;94551.38;4941391;29;20118;-74
2021/06/22 11:25:48;;;;;;;12.57;4.72;;;;;;;34.55;46.25;94545.31;4943655;29;20031;-76
2021/06/22 11:28:13;;;;;;;8.13;4.68;;;;;;;34.23;48.42;94538.03;4934968;28;20031;-70
2021/06/22 11:30:51;;;;;;;10.68;5.32;;;;;;;32.36;50.57;94536.59;4943709;29;20099;-73
2021/06/22 11:33:29;;;;;;;10.93;4.68;;;;;;;33.11;52.56;94540.56;4941653;28;20159;-74
2021/06/22 11:36:19;;;;;;;11.23;4.68;;;;;;;34.31;49.16;94545.25;4945200;28;20392;-74
2021/06/22 11:39:04;;;;;;;11.30;5.25;;;;;;;33.78;48.68;94535.16;4942008;29;20107;-74
2021/06/22 11:41:29;;;;;;;21.77;5.07;;;;;;;32.84;49.27;94531.81;4938554;29;20107;-76
2021/06/22 11:44:07;;;;;;;12.43;5.18;;;;;;;32.86;50.78;94532.25;4940125;29;20042;-74
2021/06/22 11:46:33;;;;;;;8.40;4.72;;;;;;;33.62;50.97;94526.13;4926922;29;20123;-74
2021/06/22 11:48:59;;;;;;;17.17;5.38;;;;;;;34.20;48.89;94526.00;4911490;29;20028;-74
2021/06/22 11:51:48;;;;;;;14.90;5.07;;;;;;;34.05;48.20;94531.19;4911656;29;20028;-74
2021/06/22 11:54:14;;;;;;;6.35;4.55;;;;;;;33.18;49.97;94528.22;4934893;28;20054;-76
2021/06/22 11:56:40;;;;;;;11.85;4.85;;;;;;;32.92;51.53;94521.34;4946941;29;20030;-72
2021/06/22 11:59:05;;;;;;;7.47;4.18;;;;;;;33.69;49.97;94518.31;4945943;29;20039;-75
2021/06/22 12:01:32;;;;;;;7.72;4.32;;;;;;;34.01;49.31;94524.88;4944985;29;20062;-74
2021/06/22 12:03:57;;;;;;;14.80;4.53;;;;;;;33.79;46.99;94529.47;4930068;29;20141;-74
2021/06/22 12:06:23;;;;;;;11.07;4.43;;;;;;;33.72;47.64;94515.75;4915234;29;20803;-73
2021/06/22 12:08:49;;;;;;;10.95;4.00;;;;;;;33.73;48.43;94517.34;4930287;29;20028;-74
2021/06/22 12:11:34;;;;;;;4.93;3.88;;;;;;;34.08;47.94;94517.06;4946025;29;20031;-74
2021/06/22 12:14:00;;;;;;;12.65;4.43;;;;;;;33.42;46.28;94516.88;4947987;29;20042;-74
2021/06/22 12:16:27;;;;;;;9.52;3.97;;;;;;;32.79;47.63;94515.84;4930183;29;20024;-74
2021/06/22 12:18:55;;;;;;;13.90;4.00;;;;;;;32.20;49.44;94511.38;4930576;29;20086;-76
2021/06/22 12:21:20;;;;;;;7.20;4.03;;;;;;;32.28;53.53;94510.56;4929818;29;20081;-75
2021/06/22 12:23:46;;;;;;;13.43;4.43;;;;;;;32.02;54.61;94512.44;4946370;29;20501;-75
2021/06/22 12:26:15;;;;;;;10.70;3.67;;;;;;;32.09;52.77;94513.59;4930529;29;20110;-75
2021/06/22 12:28:42;;;;;;;5.95;3.70;;;;;;;31.84;50.56;94512.47;4915081;29;20501;-74
2021/06/22 12:31:07;;;;;;;13.27;3.80;;;;;;;32.16;50.90;94510.44;4930514;29;20034;-75
2021/06/22 12:33:51;;;;;;;11.10;3.75;;;;;;;32.54;50.18;94510.53;4945431;29;20027;-75
2021/06/22 12:36:19;;;;;;;12.57;4.25;;;;;;;32.71;47.45;94508.63;4930583;29;20520;-74
2021/06/22 12:38:45;;;;;;;10.95;3.95;;;;;;;32.69;47.35;94497.41;4930348;29;20516;-74
2021/06/22 12:41:10;;;;;;;9.93;4.05;;;;;;;32.84;48.69;94496.13;4944175;29;20043;-75
2021/06/22 12:43:40;;;;;;;13.57;3.65;;;;;;;32.86;48.88;94497.38;4911941;29;20090;-74
2021/06/22 12:46:06;;;;;;;9.10;4.00;;;;;;;33.11;48.24;94503.75;4945294;28;20035;-75
2021/06/22 12:48:31;;;;;;;10.43;4.05;;;;;;;32.66;48.15;94498.06;4934119;29;20489;-74
2021/06/22 12:50:57;;;;;;;13.55;4.25;;;;;;;32.34;51.38;94496.69;4932935;29;20458;-77
2021/06/22 12:53:22;;;;;;;10.48;3.65;;;;;;;32.00;51.67;94496.69;4949529;29;20031;-72
2021/06/22 12:55:50;;;;;;;11.98;3.72;;;;;;;32.39;51.49;94487.69;4949196;29;20460;-77
2021/06/22 12:58:16;;;;;;;14.40;4.85;;;;;;;32.78;50.75;94479.38;4933707;29;20031;-74
2021/06/22 13:00:45;;;;;;;8.55;3.90;;;;;;;32.95;49.32;94488.47;4919916;28;20065;-74
2021/06/22 13:03:15;;;;;;;9.82;3.80;;;;;;;33.31;49.36;94491.50;4950781;28;20054;-71
2021/06/22 13:05:43;;;;;;;14.20;4.03;;;;;;;33.51;48.71;94482.69;4953112;28;20073;-73
2021/06/22 13:08:09;;;;;;;12.65;3.88;;;;;;;33.66;49.19;94487.50;4936147;28;20027;-73
2021/06/22 13:10:44;;;;;;;11.10;4.35;;;;;;;33.06;47.87;94482.44;4952439;28;20034;-71
2021/06/22 13:13:10;;;;;;;14.98;4.38;;;;;;;32.24;48.47;94482.81;4936363;28;20507;-71
2021/06/22 13:15:37;;;;;;;9.30;3.95;;;;;;;31.82;49.61;94484.41;4952105;28;20118;-72
2021/06/22 13:18:03;;;;;;;9.68;4.05;;;;;;;31.79;51.53;94482.34;4937092;28;20027;-74
2021/06/22 13:20:31;;;;;;;14.60;3.83;;;;;;;31.54;53.50;94486.56;4935264;28;20034;-72
2021/06/22 13:23:03;;;;;;;19.67;3.38;;;;;;;30.84;50.21;94481.31;4953332;28;20022;-70
2021/06/22 13:25:30;;;;;;;12.63;2.95;;;;;;;30.40;50.96;94481.41;4952165;28;20034;-75
2021/06/22 13:28:07;;;;;;;12.48;4.18;;;;;;;29.80;52.81;94484.38;4952399;28;20030;-71
2021/06/22 13:30:33;;;;;;;9.73;3.13;;;;;;;29.00;57.29;94493.00;4951589;28;20118;-73
2021/06/22 13:32:59;;;;;;;12.93;3.28;;;;;;;28.85;56.66;94495.97;4935966;28;20579;-71
2021/06/22 13:35:25;;;;;;;13.45;3.42;;;;;;;28.87;55.59;94493.78;4968983;28;20476;-72
2021/06/22 13:37:59;;;;;;;13.30;3.22;;;;;;;28.82;55.16;94491.22;4966659;28;20038;-71
2021/06/22 13:40:32;;;;;;;24.27;3.72;;;;;;;28.58;56.21;94486.03;4967587;28;20433;-71
2021/06/22 13:43:11;;;;;;;18.98;3.50;;;;;;;28.35;57.14;94486.22;4936016;28;20560;-72
2021/06/22 13:45:38;;;;;;;14.32;2.90;;;;;;;28.80;57.65;94495.28;4951777;28;20041;-70
2021/06/22 13:48:03;;;;;;;11.02;3.15;;;;;;;29.11;56.68;94494.41;4951772;28;20114;-71
2021/06/22 13:50:29;;;;;;;16.52;3.50;;;;;;;28.85;57.08;94484.50;4951191;28;20026;-72
2021/06/22 13:52:55;;;;;;;15.60;3.63;;;;;;;28.95;57.78;94485.13;4936293;28;20027;-74
2021/06/22 13:55:36;;;;;;;16.25;3.15;;;;;;;29.02;55.98;94469.50;4967924;28;20528;-71
2021/06/22 13:58:09;;;;;;;12.55;3.08;;;;;;;29.09;53.36;94461.09;4952852;28;20109;-73
2021/06/22 14:00:36;;;;;;;11.60;3.03;;;;;;;29.98;53.82;94464.75;4934036;28;20035;-71
2021/06/22 14:03:02;;;;;;;9.85;2.83;;;;;;;30.52;52.04;94458.34;4935923;28;20027;-71
2021/06/22 14:05:32;;;;;;;11.50;2.75;;;;;;;30.72;52.67;94462.38;4951286;28;20531;-73
2021/06/22 14:07:59;;;;;;;5.38;2.67;;;;;;;31.06;50.79;94453.69;4935284;28;20034;-70
2021/06/22 14:10:24;;;;;;;11.82;2.40;;;;;;;31.23;47.21;94451.84;4935195;28;20031;-71
2021/06/22 14:12:50;;;;;;;11.30;3.25;;;;;;;31.21;47.61;94455.94;4949216;28;20096;-74
2021/06/22 14:15:16;;;;;;;10.77;3.38;;;;;;;31.41;50.00;94452.66;4944328;28;20112;-71
2021/06/22 14:17:42;;;;;;;15.23;3.20;;;;;;;31.45;47.61;94453.59;4943487;28;20042;-71
2021/06/22 14:20:09;;;;;;;8.32;3.72;;;;;;;30.96;46.97;94454.75;4946367;28;20601;-73
2021/06/22 14:22:35;;;;;;;22.60;4.10;;;;;;;31.11;47.54;94461.59;4932911;28;20094;-71
2021/06/22 14:25:00;;;;;;;16.10;2.60;;;;;;;31.26;47.51;94458.47;4934789;28;20031;-71
2021/06/22 14:27:26;;;;;;;12.85;2.65;;;;;;;30.96;50.21;94462.00;4967704;28;20027;-71
2021/06/22 14:29:51;;;;;;;12.20;3.72;;;;;;;30.75;48.59;94462.53;4966622;28;20042;-72
2021/06/22 14:32:16;;;;;;;16.98;3.47;;;;;;;30.81;47.03;94466.66;4951114;28;20129;-74
2021/06/22 14:34:42;;;;;;;8.35;2.38;;;;;;;30.88;48.90;94465.41;4918636;28;20049;-72
2021/06/22 14:37:07;;;;;;;13.52;3.47;;;;;;;31.26;48.79;94466.50;4950827;28;20400;-72
2021/06/22 14:39:33;;;;;;;15.25;3.35;;;;;;;31.31;50.26;94463.66;4933982;28;20188;-72
2021/06/22 14:41:58;;;;;;;8.95;3.40;;;;;;;31.41;49.29;94470.59;4918633;28;20034;-74
2021/06/22 14:44:24;;;;;;;14.98;3.20;;;;;;;31.18;50.36;94473.41;4950652;28;20484;-73
2021/06/22 14:46:49;;;;;;;13.30;2.75;;;;;;;31.25;50.05;94475.63;4950147;28;20054;-71
2021/06/22 14:49:15;;;;;;;13.30;3.13;;;;;;;31.42;50.77;94467.63;4934535;28;20027;-69
2021/06/22 14:51:40;;;;;;;11.68;3.45;;;;;;;30.88;51.39;94465.41;4966944;28;20038;-72
2021/06/22 14:54:06;;;;;;;9.10;3.00;;;;;;;30.88;52.33;94468.09;4934851;28;20031;-72
2021/06/22 14:56:31;;;;;;;13.88;3.63;;;;;;;31.26;53.11;94464.63;4949164;28;20041;-71
2021/06/22 14:58:57;;;;;;;9.32;2.50;;;;;;;31.18;52.59;94469.94;4967960;28;20030;-71
2021/06/22 15:01:23;;;;;;;13.27;3.28;;;;;;;31.01;53.26;94460.00;4949636;28;20051;-70
2021/06/22 15:03:49;;;;;;;18.52;3.88;;;;;;;30.99;53.19;94456.81;4967480;28;20045;-71
2021/06/22 15:06:16;;;;;;;13.02;3.33;;;;;;;30.99;53.71;94450.66;4936559;28;20460;-69
2021/06/22 15:08:43;;;;;;;15.95;3.47;;;;;;;31.06;53.69;94445.66;4946194;28;20027;-73
2021/06/22 15:11:08;;;;;;;9.13;3.92;;;;;;;31.19;52.62;94455.44;4933380;28;20050;-72
2021/06/22 15:13:34;;;;;;;14.43;3.90;;;;;;;31.16;52.51;94454.19;4946468;28;20022;-71
2021/06/22 15:16:00;;;;;;;20.33;3.63;;;;;;;30.98;51.64;94446.44;4929100;28;20891;-73
2021/06/22 15:18:25;;;;;;;20.67;3.70;;;;;;;31.01;52.26;94438.56;4945686;28;20118;-72
2021/06/22 15:20:50;;;;;;;15.48;3.47;;;;;;;31.17;53.07;94441.59;4949012;28;20065;-72
2021/06/22 15:23:16;;;;;;;7.97;3.85;;;;;;;31.08;52.97;94441.56;4933519;28;20066;-72
2021/06/22 15:25:42;;;;;;;15.70;3.30;;;;;;;30.97;54.27;94444.84;4910123;29;20058;-73
2021/06/22 15:28:08;;;;;;;16.27;4.28;;;;;;;30.70;54.43;94446.63;4944599;28;20023;-73
2021/06/22 15:30:34;;;;;;;9.88;3.33;;;;;;;30.49;55.92;94434.91;4948598;28;20038;-72
2021/06/22 15:32:59;;;;;;;12.65;4.00;;;;;;;30.28;55.66;94439.16;4933868;28;20027;-73
2021/06/22 15:35:25;;;;;;;16.60;4.18;;;;;;;30.21;55.63;94446.84;4931865;28;20027;-73
2021/06/22 15:37:51;;;;;;;18.10;3.30;;;;;;;30.14;56.28;94435.78;4916493;28;20500;-71
2021/06/22 15:40:17;;;;;;;8.73;2.65;;;;;;;30.18;55.69;94436.75;4949182;28;20030;-72
2021/06/22 15:42:43;;;;;;;13.68;3.53;;;;;;;30.23;57.97;94441.97;4966491;28;20524;-72
2021/06/22 15:45:09;;;;;;;12.10;3.05;;;;;;;30.23;60.63;94445.44;4934117;28;20023;-71
2021/06/22 15:47:38;;;;;;;15.02;3.47;;;;;;;29.81;62.63;94444.03;4931847;28;20034;-73
2021/06/22 15:50:05;;;;;;;13.07;3.38;;;;;;;29.91;63.95;94451.03;4949785;28;20101;-71
2021/06/22 15:52:30;;;;;;;17.42;3.25;;;;;;;29.81;62.96;94437.88;4932682;28;20038;-71
2021/06/22 15:54:56;;;;;;;15.10;3.25;;;;;;;30.04;63.19;94436.81;4948934;28;20027;-71
2021/06/22 15:57:21;;;;;;;10.48;3.75;;;;;;;29.87;62.25;94438.56;4932475;28;20039;-72
2021/06/22 15:59:47;;;;;;;12.10;3.10;;;;;;;29.95;62.61;94448.56;4932491;28;20467;-74
2021/06/22 16:02:12;;;;;;;14.98;3.22;;;;;;;29.95;59.64;94448.56;4949667;28;20054;-70
2021/06/22 16:04:39;;;;;;;11.98;2.60;;;;;;;29.97;60.44;94444.47;4932642;28;20039;-71
2021/06/22 16:07:06;;;;;;;12.07;2.95;;;;;;;29.97;59.88;94457.84;4933495;28;20031;-73
2021/06/22 16:09:31;;;;;;;16.42;3.15;;;;;;;29.97;59.93;94451.69;4930233;28;20029;-74
2021/06/22 16:11:57;;;;;;;10.02;3.22;;;;;;;29.91;60.46;94452.91;4947892;28;20407;-73
2021/06/22 16:14:22;;;;;;;15.68;4.03;;;;;;;29.75;61.01;94453.25;4930570;28;20031;-73
2021/06/22 16:16:50;;;;;;;16.08;3.03;;;;;;;29.72;61.82;94456.53;4915127;28;20097;-72
2021/06/22 16:19:15;;;;;;;13.75;3.92;;;;;;;29.51;60.93;94459.97;4946823;28;20019;-74
2021/06/22 16:21:41;;;;;;;15.27;3.45;;;;;;;29.26;62.77;94454.06;4934655;28;20511;-73
2021/06/22 16:24:07;;;;;;;19.98;3.85;;;;;;;29.16;62.88;94462.25;4951214;28;20038;-73
2021/06/22 16:26:32;;;;;;;13.43;3.33;;;;;;;29.09;62.20;94456.53;4950056;28;20059;-73
2021/06/22 16:28:58;;;;;;;14.73;3.30;;;;;;;29.03;63.22;94459.59;4951621;28;20538;-73
2021/06/22 16:31:23;;;;;;;15.98;3.03;;;;;;;28.87;62.29;94463.66;4952391;28;20657;-73
2021/06/22 16:33:49;;;;;;;19.98;3.72;;;;;;;28.94;62.57;94469.38;4934820;28;20078;-73